createdAt,value
2023-11-07T00:01:23.677Z,1.27
2023-11-07T00:03:50.477Z,1.43
2023-11-07T00:06:17.242Z,1.47
2023-11-07T00:08:43.921Z,1.21
2023-11-07T00:11:10.623Z,1.28
2023-11-07T00:13:37.284Z,1.41
2023-11-07T00:16:04.219Z,1.37
2023-11-07T00:18:30.967Z,1.43
2023-11-07T00:20:57.892Z,1.30
2023-11-07T00:23:24.590Z,1.38
2023-11-07T00:25:55.220Z,1.38
2023-11-07T00:28:21.861Z,1.37
2023-11-07T00:30:48.515Z,1.34
2023-11-07T00:33:15.407Z,1.42
2023-11-07T00:35:42.149Z,1.53
2023-11-07T00:38:08.804Z,1.48
2023-11-07T00:40:35.476Z,1.33
2023-11-07T00:43:02.553Z,1.32
2023-11-07T00:45:29.314Z,1.45
2023-11-07T00:47:56.068Z,1.35
2023-11-07T00:50:22.773Z,1.40
2023-11-07T00:52:50.719Z,1.38
2023-11-07T00:55:17.397Z,1.69
2023-11-07T00:57:44.036Z,1.50
2023-11-07T01:00:11.400Z,1.63
2023-11-07T01:02:38.197Z,1.57
2023-11-07T01:05:05.274Z,1.59
2023-11-07T01:07:31.983Z,1.74
2023-11-07T01:09:58.639Z,1.76
2023-11-07T01:12:25.279Z,1.65
2023-11-07T01:14:52.122Z,1.62
2023-11-07T01:17:18.820Z,1.56
2023-11-07T01:19:45.647Z,1.82
2023-11-07T01:22:12.306Z,1.69
2023-11-07T01:24:38.979Z,1.53
2023-11-07T01:27:05.702Z,1.74
2023-11-07T01:29:32.398Z,1.70
2023-11-07T01:31:59.046Z,1.53
2023-11-07T01:34:25.728Z,1.61
2023-11-07T01:36:52.461Z,1.71
2023-11-07T01:39:19.161Z,1.55
2023-11-07T01:41:45.896Z,1.64
2023-11-07T01:44:12.602Z,1.68
2023-11-07T01:46:39.304Z,1.49
2023-11-07T01:49:06.053Z,1.62
2023-11-07T01:51:32.856Z,1.88
2023-11-07T01:54:00.879Z,1.74
2023-11-07T01:56:27.846Z,1.81
2023-11-07T01:58:57.072Z,1.74
2023-11-07T02:01:25.803Z,1.62
2023-11-07T02:03:52.863Z,1.65
2023-11-07T02:06:19.731Z,1.80
2023-11-07T02:08:46.554Z,1.59
2023-11-07T02:11:13.250Z,1.90
2023-11-07T02:13:40.004Z,1.75
2023-11-07T02:16:07.230Z,1.65
2023-11-07T02:18:34.148Z,1.82
2023-11-07T02:21:00.919Z,1.89
2023-11-07T02:23:32.128Z,1.71
2023-11-07T02:25:59.461Z,1.67
2023-11-07T02:28:26.172Z,1.77
2023-11-07T02:30:53.289Z,1.72
2023-11-07T02:33:20.149Z,1.59
2023-11-07T02:35:47.624Z,1.72
2023-11-07T02:38:14.382Z,1.72
2023-11-07T02:40:41.049Z,1.87
2023-11-07T02:43:07.746Z,1.77
2023-11-07T02:45:36.575Z,1.79
2023-11-07T02:48:04.038Z,1.63
2023-11-07T02:50:31.044Z,1.80
2023-11-07T02:52:57.698Z,1.64
2023-11-07T02:55:25.409Z,1.77
2023-11-07T02:57:52.067Z,1.63
2023-11-07T03:00:19.076Z,1.63
2023-11-07T03:02:45.809Z,1.37
2023-11-07T03:05:12.653Z,1.31
2023-11-07T03:07:39.295Z,1.33
2023-11-07T03:10:06.274Z,1.23
2023-11-07T03:12:32.955Z,1.33
2023-11-07T03:14:59.644Z,1.26
2023-11-07T03:17:26.557Z,1.27
2023-11-07T03:19:53.290Z,1.15
2023-11-07T03:22:23.676Z,1.05
2023-11-07T03:24:50.444Z,1.04
2023-11-07T03:27:17.148Z,1.22
2023-11-07T03:29:44.080Z,1.09
2023-11-07T03:32:10.878Z,1.01
2023-11-07T03:34:37.541Z,1.09
2023-11-07T03:37:04.315Z,1.12
2023-11-07T03:39:32.125Z,1.00
2023-11-07T03:41:59.798Z,1.05
2023-11-07T03:44:26.593Z,1.07
2023-11-07T03:46:53.266Z,1.02
2023-11-07T03:49:20.033Z,1.10
2023-11-07T03:51:46.694Z,1.11
2023-11-07T03:54:13.361Z,0.99
2023-11-07T03:56:40.152Z,0.96
2023-11-07T03:59:06.796Z,1.11
2023-11-07T04:01:37.397Z,1.14
2023-11-07T04:04:04.893Z,0.92
2023-11-07T04:06:32.094Z,0.93
2023-11-07T04:08:59.740Z,0.88
2023-11-07T04:11:27.278Z,0.96
2023-11-07T04:14:16.027Z,0.87
2023-11-07T04:16:42.678Z,0.88
2023-11-07T04:19:09.520Z,1.07
2023-11-07T04:21:36.228Z,0.89
2023-11-07T04:24:02.931Z,1.07
2023-11-07T04:26:29.636Z,0.72
2023-11-07T04:28:56.296Z,0.79
2023-11-07T04:31:22.945Z,0.92
2023-11-07T04:33:50.253Z,0.94
2023-11-07T04:36:17.017Z,1.01
2023-11-07T04:38:44.428Z,0.86
2023-11-07T04:41:11.283Z,0.82
2023-11-07T04:43:37.928Z,0.79
2023-11-07T04:46:04.840Z,0.80
2023-11-07T04:48:31.841Z,0.72
2023-11-07T04:51:02.560Z,0.75
2023-11-07T04:53:29.343Z,0.78
2023-11-07T04:55:56.238Z,0.64
2023-11-07T04:58:24.783Z,0.73
2023-11-07T05:00:51.490Z,0.74
2023-11-07T05:03:20.954Z,0.73
2023-11-07T05:05:49.422Z,0.64
2023-11-07T05:08:16.074Z,0.65
2023-11-07T05:10:42.761Z,0.74
2023-11-07T05:13:09.440Z,0.64
2023-11-07T05:15:36.101Z,0.62
2023-11-07T05:18:02.901Z,0.69
2023-11-07T05:20:30.669Z,0.68
2023-11-07T05:22:57.329Z,0.84
2023-11-07T05:25:24.034Z,0.81
2023-11-07T05:27:50.688Z,0.81
2023-11-07T05:30:17.418Z,0.76
2023-11-07T05:32:44.185Z,0.77
2023-11-07T05:35:10.888Z,0.70
2023-11-07T05:37:37.552Z,0.68
2023-11-07T05:40:04.570Z,0.71
2023-11-07T05:42:31.269Z,0.85
2023-11-07T05:44:59.295Z,0.83
2023-11-07T05:47:26.189Z,0.84
2023-11-07T05:49:52.858Z,0.74
2023-11-07T05:52:19.519Z,0.84
2023-11-07T05:54:46.197Z,0.88
2023-11-07T05:57:13.073Z,0.79
2023-11-07T05:59:39.762Z,0.82
2023-11-07T06:02:06.517Z,0.90
2023-11-07T06:04:36.496Z,0.90
2023-11-07T06:07:04.076Z,0.93
2023-11-07T06:09:30.820Z,1.03
2023-11-07T06:11:57.897Z,0.79
2023-11-07T06:14:25.278Z,0.95
2023-11-07T06:16:52.445Z,0.89
2023-11-07T06:19:19.468Z,0.86
2023-11-07T06:21:46.248Z,0.77
2023-11-07T06:24:12.955Z,0.82
2023-11-07T06:26:39.694Z,0.79
2023-11-07T06:29:06.455Z,0.65
2023-11-07T06:31:33.171Z,0.85
2023-11-07T06:34:00.213Z,0.78
2023-11-07T06:36:27.098Z,1.00
2023-11-07T06:38:53.844Z,0.82
2023-11-07T06:41:20.607Z,0.86
2023-11-07T06:43:51.504Z,0.79
2023-11-07T06:46:21.494Z,0.92
2023-11-07T06:48:48.422Z,1.20
2023-11-07T06:51:16.166Z,1.00
2023-11-07T06:53:42.912Z,1.01
2023-11-07T06:56:09.758Z,0.96
2023-11-07T06:58:36.839Z,1.05
2023-11-07T07:01:04.320Z,0.91
2023-11-07T07:03:31.188Z,0.97
2023-11-07T07:05:58.018Z,0.94
2023-11-07T07:08:24.793Z,0.83
2023-11-07T07:10:53.118Z,0.90
2023-11-07T07:13:19.962Z,0.86
2023-11-07T07:15:47.582Z,0.90
2023-11-07T07:18:14.783Z,1.02
2023-11-07T07:20:41.565Z,0.79
2023-11-07T07:23:08.620Z,0.98
2023-11-07T07:25:36.123Z,1.05
2023-11-07T07:28:04.726Z,0.98
2023-11-07T07:30:31.706Z,1.17
2023-11-07T07:32:58.558Z,1.13
2023-11-07T07:35:25.515Z,1.00
2023-11-07T07:37:52.224Z,0.93
2023-11-07T07:40:20.601Z,0.96
2023-11-07T07:42:47.367Z,0.95
2023-11-07T07:45:14.261Z,0.90
2023-11-07T07:47:41.093Z,0.88
2023-11-07T07:50:09.224Z,1.17
2023-11-07T07:52:35.898Z,1.14
2023-11-07T07:55:10.460Z,1.13
2023-11-07T07:57:43.266Z,1.12
2023-11-07T08:00:10.404Z,1.19
2023-11-07T08:02:37.162Z,1.15
2023-11-07T08:05:03.997Z,1.26
2023-11-07T08:07:30.753Z,1.09
2023-11-07T08:09:57.427Z,1.15
2023-11-07T08:12:24.081Z,1.19
2023-11-07T08:14:50.764Z,1.29
2023-11-07T08:17:17.928Z,1.23
2023-11-07T08:19:44.665Z,1.17
2023-11-07T08:22:11.394Z,1.15
2023-11-07T08:24:38.119Z,1.30
2023-11-07T08:27:04.924Z,1.08
2023-11-07T08:29:31.691Z,1.01
2023-11-07T08:31:58.472Z,1.03
2023-11-07T08:34:25.412Z,1.08
2023-11-07T08:37:01.878Z,1.20
2023-11-07T08:39:35.474Z,0.97
2023-11-07T08:42:02.407Z,1.08
2023-11-07T08:44:29.473Z,1.05
2023-11-07T08:46:56.314Z,1.04
2023-11-07T08:49:23.147Z,1.25
2023-11-07T08:51:49.970Z,0.96
2023-11-07T08:54:16.781Z,1.05
2023-11-07T08:56:43.580Z,0.99
2023-11-07T08:59:10.319Z,1.13
2023-11-07T09:01:37.099Z,1.02
2023-11-07T09:04:03.972Z,1.08
2023-11-07T09:06:31.027Z,1.17
2023-11-07T09:08:57.785Z,1.01
2023-11-07T09:11:24.530Z,1.13
2023-11-07T09:13:51.305Z,1.01
2023-11-07T09:16:18.113Z,1.13
2023-11-07T09:18:45.008Z,1.27
2023-11-07T09:21:11.873Z,1.10
2023-11-07T09:23:38.682Z,1.28
2023-11-07T09:26:05.538Z,0.96
2023-11-07T09:28:32.298Z,0.95
2023-11-07T09:30:59.290Z,1.04
2023-11-07T09:33:26.155Z,1.02
2023-11-07T09:35:52.939Z,0.89
2023-11-07T09:38:20.044Z,0.99
2023-11-07T09:40:46.856Z,1.07
2023-11-07T09:43:13.972Z,1.04
2023-11-07T09:45:43.190Z,0.97
2023-11-07T09:48:10.296Z,0.91
2023-11-07T09:50:37.298Z,0.97
2023-11-07T09:53:05.090Z,0.88
2023-11-07T09:55:33.395Z,0.84
2023-11-07T09:58:12.944Z,1.10
2023-11-07T10:00:44.319Z,1.16
2023-11-07T10:03:11.670Z,1.11
2023-11-07T10:05:40.106Z,1.13
2023-11-07T10:08:06.822Z,1.01
2023-11-07T10:10:33.903Z,0.98
2023-11-07T10:13:09.289Z,1.43
2023-11-07T10:15:36.453Z,1.10
2023-11-07T10:18:06.590Z,1.25
2023-11-07T10:20:34.607Z,0.85
2023-11-07T10:23:02.082Z,0.86
2023-11-07T10:25:37.011Z,0.96
2023-11-07T10:28:05.349Z,0.80
2023-11-07T10:30:42.853Z,0.83
2023-11-07T10:33:28.300Z,0.81
2023-11-07T10:35:58.078Z,1.01
2023-11-07T10:38:25.524Z,0.71
2023-11-07T10:40:52.974Z,0.79
2023-11-07T10:43:39.706Z,0.80
2023-11-07T10:46:12.832Z,0.79
2023-11-07T10:48:42.426Z,0.99
2023-11-07T10:51:12.118Z,0.83
2023-11-07T10:53:40.804Z,0.81
2023-11-07T10:56:18.832Z,0.69
2023-11-07T10:59:00.579Z,0.72
2023-11-07T11:01:31.297Z,0.69
2023-11-07T11:04:03.068Z,0.67
2023-11-07T11:06:33.064Z,0.58
2023-11-07T11:09:05.719Z,0.70
2023-11-07T11:11:34.702Z,0.51
2023-11-07T11:14:03.989Z,0.39
2023-11-07T11:16:32.743Z,0.49
2023-11-07T11:19:23.024Z,0.55
2023-11-07T11:21:57.866Z,0.72
2023-11-07T11:25:02.248Z,0.70
2023-11-07T11:27:36.962Z,0.65
2023-11-07T11:30:04.093Z,0.96
2023-11-07T11:32:31.863Z,0.82
2023-11-07T11:35:13.890Z,0.67
2023-11-07T11:38:09.623Z,0.89
2023-11-07T11:40:58.442Z,1.01
2023-11-07T11:43:27.419Z,1.05
2023-11-07T11:45:56.245Z,0.87
2023-11-07T11:48:47.998Z,0.59
2023-11-07T11:51:34.125Z,0.72
2023-11-07T11:54:01.319Z,0.70
2023-11-07T11:56:28.629Z,0.80
2023-11-07T11:59:06.994Z,0.76
2023-11-07T12:01:53.995Z,0.80
2023-11-07T12:04:26.776Z,0.89
2023-11-07T12:07:09.868Z,0.86
2023-11-07T12:09:49.065Z,0.90
2023-11-07T12:12:16.555Z,0.90
2023-11-07T12:15:00.965Z,0.78
2023-11-07T12:17:43.180Z,0.97
2023-11-07T12:20:13.315Z,0.96
2023-11-07T12:22:43.934Z,0.78
2023-11-07T12:25:14.299Z,0.97
2023-11-07T12:27:42.445Z,0.93
2023-11-07T12:30:16.775Z,0.72
2023-11-07T12:32:45.335Z,0.80
2023-11-07T12:35:22.305Z,0.86
2023-11-07T12:37:51.339Z,0.82
2023-11-07T12:40:19.165Z,0.76
2023-11-07T12:42:53.947Z,0.69
2023-11-07T12:45:29.262Z,0.78
2023-11-07T12:47:58.271Z,0.64
2023-11-07T12:50:28.870Z,0.71
2023-11-07T12:52:56.800Z,0.80
2023-11-07T12:55:23.662Z,0.80
2023-11-07T12:57:51.264Z,0.86
2023-11-07T13:00:18.310Z,1.09
2023-11-07T13:02:45.196Z,0.95
2023-11-07T13:05:16.694Z,0.85
2023-11-07T13:07:44.149Z,0.75
2023-11-07T13:10:15.717Z,0.89
2023-11-07T13:12:43.049Z,0.82
2023-11-07T13:15:14.138Z,0.73
2023-11-07T13:17:41.900Z,0.75
2023-11-07T13:20:10.135Z,0.75
2023-11-07T13:22:36.837Z,1.36
2023-11-07T13:25:04.053Z,1.28
2023-11-07T13:27:30.809Z,0.99
2023-11-07T13:29:57.563Z,0.79
2023-11-07T13:32:24.365Z,0.67
2023-11-07T13:34:51.220Z,0.69
2023-11-07T13:37:18.466Z,0.86
2023-11-07T13:39:45.553Z,0.80
2023-11-07T13:42:12.299Z,1.15
2023-11-07T13:44:39.127Z,0.86
2023-11-07T13:47:05.948Z,0.85
2023-11-07T13:49:32.821Z,0.83
2023-11-07T13:51:59.493Z,0.83
2023-11-07T13:54:26.203Z,0.93
2023-11-07T13:56:52.889Z,0.93
2023-11-07T13:59:19.589Z,0.88
2023-11-07T14:01:46.347Z,0.89
2023-11-07T14:04:13.293Z,0.93
2023-11-07T14:06:40.392Z,1.15
2023-11-07T14:09:07.221Z,1.28
2023-11-07T14:11:34.026Z,0.96
2023-11-07T14:14:00.786Z,0.98
2023-11-07T14:16:27.604Z,1.01
2023-11-07T14:18:54.792Z,1.18
2023-11-07T14:21:21.665Z,1.26
2023-11-07T14:23:49.136Z,0.93
2023-11-07T14:26:15.904Z,1.23
2023-11-07T14:28:50.858Z,1.11
2023-11-07T14:31:25.883Z,1.13
2023-11-07T14:33:52.720Z,1.23
2023-11-07T14:36:19.656Z,1.14
2023-11-07T14:38:46.882Z,1.11
2023-11-07T14:41:13.524Z,1.04
2023-11-07T14:43:40.176Z,1.07
2023-11-07T14:46:06.950Z,1.04
2023-11-07T14:48:34.716Z,1.29
2023-11-07T14:51:01.560Z,1.12
2023-11-07T14:53:28.356Z,1.31
2023-11-07T14:55:55.365Z,1.20
2023-11-07T14:58:24.404Z,1.36
2023-11-07T15:00:52.155Z,1.34
2023-11-07T15:03:19.053Z,1.25
2023-11-07T15:05:45.960Z,1.36
2023-11-07T15:08:12.684Z,1.36
2023-11-07T15:10:39.531Z,1.53
2023-11-07T15:13:07.114Z,1.26
2023-11-07T15:15:34.642Z,1.32
2023-11-07T15:18:02.852Z,1.25
2023-11-07T15:20:29.896Z,1.15
2023-11-07T15:22:56.969Z,1.02
2023-11-07T15:25:23.783Z,1.20
2023-11-07T15:27:50.440Z,1.03
2023-11-07T15:30:17.215Z,1.04
2023-11-07T15:32:45.706Z,1.02
2023-11-07T15:35:12.543Z,1.04
2023-11-07T15:37:39.207Z,1.29
2023-11-07T15:40:06.234Z,1.36
2023-11-07T15:42:32.913Z,1.25
2023-11-07T15:44:59.599Z,1.49
2023-11-07T15:47:26.303Z,1.51
2023-11-07T15:49:53.114Z,1.59
2023-11-07T15:52:19.757Z,1.60
2023-11-07T15:54:46.568Z,1.60
2023-11-07T15:57:13.923Z,1.52
2023-11-07T15:59:40.625Z,1.67
2023-11-07T16:02:07.266Z,1.38
2023-11-07T16:04:34.071Z,1.62
2023-11-07T16:07:00.819Z,1.42
2023-11-07T16:09:27.593Z,1.54
2023-11-07T16:11:54.329Z,1.35
2023-11-07T16:14:21.079Z,1.42
2023-11-07T16:16:47.899Z,1.16
2023-11-07T16:19:14.669Z,1.27
2023-11-07T16:21:42.733Z,1.20
2023-11-07T16:24:09.783Z,1.27
2023-11-07T16:26:40.181Z,1.28
2023-11-07T16:29:06.926Z,1.46
2023-11-07T16:31:33.666Z,1.67
2023-11-07T16:34:04.605Z,1.20
2023-11-07T16:36:31.370Z,1.33
2023-11-07T16:38:58.268Z,1.44
2023-11-07T16:41:25.031Z,1.44
2023-11-07T16:43:52.058Z,1.27
2023-11-07T16:46:19.093Z,1.02
2023-11-07T16:48:45.923Z,1.16
2023-11-07T16:51:12.808Z,1.09
2023-11-07T16:53:39.621Z,1.05
2023-11-07T16:56:06.517Z,0.96
2023-11-07T16:58:33.227Z,0.94
2023-11-07T17:00:59.866Z,1.13
2023-11-07T17:03:26.812Z,1.02
2023-11-07T17:05:53.691Z,1.19
2023-11-07T17:08:20.372Z,1.24
2023-11-07T17:10:47.030Z,1.42
2023-11-07T17:13:13.754Z,1.30
2023-11-07T17:15:41.770Z,1.24
2023-11-07T17:18:08.579Z,1.28
2023-11-07T17:20:35.261Z,1.29
2023-11-07T17:23:02.301Z,1.34
2023-11-07T17:25:29.004Z,1.21
2023-11-07T17:27:56.034Z,1.33
2023-11-07T17:30:22.882Z,1.42
2023-11-07T17:32:50.133Z,1.67
2023-11-07T17:35:17.092Z,1.66
2023-11-07T17:37:43.983Z,1.79
2023-11-07T17:40:11.024Z,1.81
2023-11-07T17:42:37.891Z,1.94
2023-11-07T17:45:05.844Z,2.52
2023-11-07T17:47:33.080Z,4.11
2023-11-07T17:50:00.975Z,3.12
2023-11-07T17:52:27.703Z,2.65
2023-11-07T17:54:54.434Z,2.82
2023-11-07T17:57:23.902Z,2.87
2023-11-07T17:59:50.973Z,4.01
2023-11-07T18:02:17.753Z,5.39
2023-11-07T18:04:44.465Z,4.33
2023-11-07T18:07:11.214Z,3.46
2023-11-07T18:09:38.426Z,8.18
2023-11-07T18:12:05.376Z,13.42
2023-11-07T18:14:32.124Z,9.55
2023-11-07T18:16:58.906Z,15.57
2023-11-07T18:19:26.130Z,14.56
2023-11-07T18:21:53.082Z,13.04
2023-11-07T18:24:19.790Z,5.67
2023-11-07T18:26:46.550Z,5.25
2023-11-07T18:29:13.662Z,4.01
2023-11-07T18:31:40.405Z,6.48
2023-11-07T18:34:16.641Z,4.70
2023-11-07T18:37:03.689Z,4.64
2023-11-07T18:39:31.773Z,3.34
2023-11-07T18:41:58.948Z,3.46
2023-11-07T18:44:25.929Z,4.09
2023-11-07T18:46:52.674Z,3.43
2023-11-07T18:49:19.386Z,4.75
2023-11-07T18:51:47.588Z,6.24
2023-11-07T18:54:14.617Z,6.21
2023-11-07T18:56:48.065Z,6.61
2023-11-07T18:59:24.202Z,3.90
2023-11-07T19:01:58.646Z,3.82
2023-11-07T19:04:25.410Z,3.77
2023-11-07T19:06:52.290Z,3.59
2023-11-07T19:09:19.094Z,3.42
2023-11-07T19:11:45.859Z,4.44
2023-11-07T19:14:12.551Z,6.48
2023-11-07T19:16:39.198Z,4.41
2023-11-07T19:19:06.132Z,3.20
2023-11-07T19:21:32.930Z,3.47
2023-11-07T19:23:59.700Z,3.01
2023-11-07T19:26:27.042Z,3.07
2023-11-07T19:28:53.686Z,3.31
2023-11-07T19:31:20.350Z,5.47
2023-11-07T19:33:47.119Z,3.70
2023-11-07T19:36:13.960Z,3.13
2023-11-07T19:38:40.818Z,3.36
2023-11-07T19:41:07.514Z,3.87
2023-11-07T19:43:40.412Z,3.25
2023-11-07T19:46:09.640Z,3.31
2023-11-07T19:48:37.080Z,3.67
2023-11-07T19:51:04.338Z,3.93
2023-11-07T19:53:31.037Z,4.20
2023-11-07T19:55:57.692Z,3.93
2023-11-07T19:58:24.443Z,3.31
2023-11-07T20:00:51.089Z,3.15
2023-11-07T20:03:17.928Z,2.99
2023-11-07T20:05:44.683Z,3.18
2023-11-07T20:08:11.689Z,3.45
2023-11-07T20:10:38.351Z,3.94
2023-11-07T20:13:05.006Z,4.10
2023-11-07T20:15:31.720Z,4.18
2023-11-07T20:17:58.830Z,4.01
2023-11-07T20:20:25.552Z,4.28
2023-11-07T20:22:52.206Z,3.97
2023-11-07T20:25:18.883Z,5.41
2023-11-07T20:27:45.683Z,4.67
2023-11-07T20:30:12.490Z,6.70
2023-11-07T20:32:39.255Z,5.97
2023-11-07T20:35:06.519Z,5.81
2023-11-07T20:37:33.383Z,4.90
2023-11-07T20:40:00.135Z,5.33
2023-11-07T20:42:27.011Z,5.11
2023-11-07T20:45:00.882Z,4.31
2023-11-07T20:47:35.184Z,4.30
2023-11-07T20:50:02.082Z,3.71
2023-11-07T20:52:28.735Z,4.06
2023-11-07T20:54:55.790Z,3.63
2023-11-07T20:57:22.553Z,3.78
2023-11-07T20:59:49.619Z,4.73
2023-11-07T21:02:16.297Z,3.47
2023-11-07T21:04:42.987Z,3.88
2023-11-07T21:07:09.718Z,4.83
2023-11-07T21:09:36.455Z,5.17
2023-11-07T21:12:03.374Z,4.64
2023-11-07T21:14:30.048Z,4.42
2023-11-07T21:16:56.780Z,4.46
2023-11-07T21:19:25.572Z,4.68
2023-11-07T21:21:53.408Z,4.16
2023-11-07T21:24:20.213Z,4.37
2023-11-07T21:26:46.872Z,4.69
2023-11-07T21:29:13.538Z,5.03
2023-11-07T21:31:40.226Z,4.63
2023-11-07T21:34:06.940Z,4.15
2023-11-07T21:36:33.768Z,4.51
2023-11-07T21:39:00.448Z,4.33
2023-11-07T21:41:27.150Z,4.09
2023-11-07T21:43:53.795Z,4.15
2023-11-07T21:46:20.437Z,4.79
2023-11-07T21:48:47.458Z,4.77
2023-11-07T21:51:14.247Z,5.33
2023-11-07T21:53:40.950Z,4.99
2023-11-07T21:56:07.661Z,4.72
2023-11-07T21:58:34.307Z,4.87
2023-11-07T22:01:01.062Z,5.07
2023-11-07T22:03:27.788Z,5.73
2023-11-07T22:05:54.584Z,5.45
2023-11-07T22:08:21.297Z,6.61
2023-11-07T22:10:48.073Z,5.33
2023-11-07T22:13:14.738Z,5.02
2023-11-07T22:15:41.401Z,5.40
2023-11-07T22:18:08.448Z,5.17
2023-11-07T22:20:37.084Z,5.29
2023-11-07T22:23:03.889Z,5.33
2023-11-07T22:25:30.814Z,5.36
2023-11-07T22:27:58.381Z,5.36
2023-11-07T22:30:26.216Z,5.75
2023-11-07T22:32:53.124Z,5.30
2023-11-07T22:35:20.000Z,5.45
2023-11-07T22:37:46.751Z,5.31
2023-11-07T22:40:13.553Z,5.38
2023-11-07T22:42:40.529Z,5.51
2023-11-07T22:45:08.633Z,5.38
2023-11-07T22:47:35.406Z,5.50
2023-11-07T22:50:02.183Z,5.41
2023-11-07T22:52:28.836Z,5.19
2023-11-07T22:54:55.615Z,5.44
2023-11-07T22:57:22.376Z,5.81
2023-11-07T22:59:49.153Z,5.46
2023-11-07T23:02:15.821Z,5.87
2023-11-07T23:04:42.509Z,5.89
2023-11-07T23:07:09.573Z,5.72
2023-11-07T23:09:36.276Z,5.66
2023-11-07T23:12:03.574Z,5.90
2023-11-07T23:14:30.672Z,5.58
2023-11-07T23:16:57.330Z,5.81
2023-11-07T23:19:23.977Z,6.05
2023-11-07T23:21:50.625Z,5.87
2023-11-07T23:24:17.340Z,5.84
2023-11-07T23:26:48.225Z,6.02
2023-11-07T23:29:15.688Z,5.56
2023-11-07T23:31:42.387Z,6.10
2023-11-07T23:34:09.196Z,5.78
2023-11-07T23:36:35.943Z,5.85
2023-11-07T23:39:02.634Z,5.78
2023-11-07T23:41:29.465Z,5.88
2023-11-07T23:43:56.183Z,5.24
2023-11-07T23:46:22.922Z,5.19
2023-11-07T23:48:49.667Z,4.94
2023-11-07T23:51:16.496Z,4.76
2023-11-07T23:53:43.569Z,4.50
2023-11-07T23:56:10.621Z,4.43
2023-11-07T23:58:37.333Z,4.40
